Time;durP1;ratioP1;P1;durP2;ratioP2;P2;SDS_P1;SDS_P2;PMS_P1;PMS_P2;Temp;Humidity;BMP_temperature;BMP_pressure;BME280_temperature;BME280_humidity;BME280_pressure;Samples;Min_cycle;Max_cycle;Signal;HPM_P1;HPM_P2
2023/12/10 00:00:11;;;;;;;13.70;3.20;;;8.70;1.00;;;;;;5116568;28;20198;-42
2023/12/10 00:02:37;;;;;;;10.10;2.57;;;8.70;1.00;;;;;;5117295;28;20191;-40
2023/12/10 00:05:03;;;;;;;4.00;2.03;;;8.70;1.00;;;;;;5116909;28;20421;-40
2023/12/10 00:07:28;;;;;;;11.67;2.87;;;8.70;1.00;;;;;;5117342;28;20275;-40
2023/12/10 00:09:54;;;;;;;9.23;2.30;;;8.60;1.00;;;;;;5116350;28;20195;-40
2023/12/10 00:12:20;;;;;;;13.00;3.10;;;8.60;1.00;;;;;;5080943;28;20172;-46
2023/12/10 00:14:52;;;;;;;9.23;2.63;;;8.60;1.00;;;;;;5112728;28;20601;-45
2023/12/10 00:17:17;;;;;;;8.37;3.17;;;8.60;1.00;;;;;;5082309;28;20187;-40
2023/12/10 00:19:43;;;;;;;10.83;3.47;;;8.60;1.00;;;;;;5114687;28;20456;-42
2023/12/10 00:22:09;;;;;;;9.43;2.40;;;8.60;1.00;;;;;;5114265;28;20167;-42
2023/12/10 00:24:34;;;;;;;9.30;2.80;;;8.50;1.00;;;;;;5114737;28;20583;-44
2023/12/10 00:27:00;;;;;;;9.83;3.10;;;;;;;;;;5080217;28;20222;-44
2023/12/10 00:29:26;;;;;;;10.70;2.60;;;8.50;1.00;;;;;;5114876;28;20567;-42
2023/12/10 00:31:52;;;;;;;10.83;2.70;;;8.50;1.00;;;;;;5116265;28;20460;-40
2023/12/10 00:34:17;;;;;;;12.77;3.10;;;8.50;1.00;;;;;;5118035;28;20421;-44
2023/12/10 00:36:43;;;;;;;11.90;3.40;;;8.50;1.00;;;;;;5117489;28;20201;-42
2023/12/10 00:39:11;;;;;;;18.07;3.90;;;8.50;1.00;;;;;;5118888;28;20207;-40
2023/12/10 00:41:37;;;;;;;16.83;4.33;;;8.50;1.00;;;;;;5099319;28;20441;-40
2023/12/10 00:44:03;;;;;;;9.63;3.00;;;8.50;1.00;;;;;;5118451;28;20734;-39
2023/12/10 00:46:29;;;;;;;23.33;5.03;;;8.50;1.00;;;;;;5118751;28;20428;-40
2023/12/10 00:48:55;;;;;;;25.63;4.77;;;8.50;1.00;;;;;;5118758;28;20402;-40
2023/12/10 00:51:21;;;;;;;18.20;4.07;;;8.50;1.00;;;;;;5117252;28;20441;-40
2023/12/10 00:53:47;;;;;;;15.20;3.40;;;8.50;1.00;;;;;;5117389;28;20188;-42
2023/12/10 00:56:13;;;;;;;13.60;5.10;;;8.50;99.90;;;;;;5100956;28;20439;-42
2023/12/10 00:58:39;;;;;;;20.00;4.87;;;8.40;99.90;;;;;;5119768;28;20512;-40
2023/12/10 01:01:05;;;;;;;19.97;4.50;;;8.40;99.90;;;;;;5119541;28;20164;-42
2023/12/10 01:03:30;;;;;;;17.27;5.17;;;8.40;99.90;;;;;;5103025;28;20168;-39
2023/12/10 01:05:56;;;;;;;16.53;4.53;;;8.50;99.90;;;;;;5121204;28;20426;-39
2023/12/10 01:08:22;;;;;;;16.47;4.27;;;8.40;99.90;;;;;;5120336;28;20272;-39
2023/12/10 01:10:48;;;;;;;11.60;3.77;;;8.40;99.90;;;;;;5120180;28;20509;-40
2023/12/10 01:13:14;;;;;;;12.60;3.73;;;8.50;99.90;;;;;;5120678;28;20176;-40
2023/12/10 01:15:40;;;;;;;21.70;5.23;;;8.40;90.10;;;;;;5120522;28;20412;-42
2023/12/10 01:18:06;;;;;;;15.90;4.53;;;8.50;96.00;;;;;;5118191;28;20509;-41
2023/12/10 01:20:33;;;;;;;17.23;4.77;;;8.50;43.50;;;;;;5119113;28;20449;-40
2023/12/10 01:22:59;;;;;;;16.60;4.50;;;8.50;26.30;;;;;;5101236;28;20425;-40
2023/12/10 01:25:25;;;;;;;17.57;4.77;;;8.50;12.80;;;;;;5119363;28;20772;-41
2023/12/10 01:27:52;;;;;;;19.70;4.27;;;8.50;29.50;;;;;;5101516;28;20457;-41
2023/12/10 01:30:23;;;;;;;23.00;5.17;;;8.50;16.10;;;;;;5118585;28;20445;-42
2023/12/10 01:32:52;;;;;;;14.40;4.73;;;8.50;24.70;;;;;;5100705;28;20838;-43
2023/12/10 01:35:17;;;;;;;17.73;3.83;;;8.50;1.00;;;;;;5119028;28;20476;-42
2023/12/10 01:37:43;;;;;;;17.80;4.20;;;8.50;1.00;;;;;;5119028;28;20422;-40
2023/12/10 01:40:09;;;;;;;16.93;5.00;;;8.50;1.00;;;;;;5118643;28;20237;-42
2023/12/10 01:42:35;;;;;;;15.37;4.33;;;8.50;1.00;;;;;;5119115;28;20172;-40
2023/12/10 01:45:03;;;;;;;12.80;4.27;;;8.50;1.00;;;;;;5118008;28;20509;-41
2023/12/10 01:47:38;;;;;;;14.80;4.53;;;8.50;1.00;;;;;;5115856;28;20203;-43
2023/12/10 01:50:05;;;;;;;13.00;4.90;;;8.50;1.00;;;;;;5100221;28;20428;-40
2023/12/10 01:52:31;;;;;;;22.53;5.37;;;8.50;1.00;;;;;;5117213;28;20882;-44
2023/12/10 01:54:58;;;;;;;14.10;3.83;;;8.50;1.00;;;;;;5118692;28;20858;-42
2023/12/10 01:57:25;;;;;;;14.87;3.63;;;8.60;1.00;;;;;;5117668;28;20473;-41
2023/12/10 01:59:50;;;;;;;15.20;4.67;;;8.60;99.90;;;;;;5117493;28;20502;-40
2023/12/10 02:02:16;;;;;;;15.97;3.90;;;8.60;99.90;;;;;;5099264;28;20433;-40
2023/12/10 02:04:42;;;;;;;22.40;4.13;;;8.60;99.90;;;;;;5100997;28;20195;-42
2023/12/10 02:07:07;;;;;;;15.30;3.60;;;8.60;99.90;;;;;;5101283;28;20479;-41
2023/12/10 02:09:33;;;;;;;19.27;5.67;;;8.60;99.90;;;;;;5119237;28;20178;-43
2023/12/10 02:11:59;;;;;;;17.27;4.73;;;8.60;99.90;;;;;;5119306;28;20244;-39
2023/12/10 02:14:24;;;;;;;24.67;5.70;;;8.50;99.90;;;;;;5119319;28;20186;-42
2023/12/10 02:16:50;;;;;;;10.93;2.93;;;8.60;99.90;;;;;;5119726;28;20194;-39
2023/12/10 02:19:16;;;;;;;21.53;4.53;;;8.60;99.90;;;;;;5119640;28;20238;-40
2023/12/10 02:21:44;;;;;;;13.90;4.37;;;8.50;99.90;;;;;;5118903;28;20176;-41
2023/12/10 02:24:11;;;;;;;13.33;3.60;;;8.60;99.90;;;;;;5101637;28;20190;-40
2023/12/10 02:26:37;;;;;;;13.10;3.67;;;8.50;1.00;;;;;;5101019;28;20471;-42
2023/12/10 02:29:03;;;;;;;18.53;4.27;;;8.50;1.00;;;;;;5118931;28;20496;-46
2023/12/10 02:31:29;;;;;;;17.67;4.07;;;8.50;1.00;;;;;;5119384;28;20183;-40
2023/12/10 02:33:55;;;;;;;14.53;4.30;;;8.80;99.90;;;;;;5118485;28;20461;-39
2023/12/10 02:36:21;;;;;;;14.27;3.17;;;9.50;1.00;;;;;;5119433;28;20428;-39
2023/12/10 02:38:48;;;;;;;26.13;3.80;;;10.10;1.00;;;;;;5119632;28;20795;-39
2023/12/10 02:41:15;;;;;;;11.13;2.93;;;10.70;1.00;;;;;;5119284;28;20521;-39
2023/12/10 02:43:40;;;;;;;13.03;4.13;;;11.20;1.00;;;;;;5117682;28;20482;-40
2023/12/10 02:46:06;;;;;;;6.10;2.47;;;11.60;99.90;;;;;;5118687;28;20680;-42
2023/12/10 02:48:32;;;;;;;7.67;2.10;;;11.50;1.00;;;;;;5118599;28;20234;-43
2023/12/10 02:50:58;;;;;;;5.67;2.07;;;11.20;99.90;;;;;;5118120;28;20176;-41
2023/12/10 02:53:23;;;;;;;10.20;2.40;;;10.90;99.90;;;;;;5118974;28;20435;-40
2023/12/10 02:55:49;;;;;;;10.00;2.73;;;10.50;1.00;;;;;;5117907;28;20212;-44
2023/12/10 02:58:15;;;;;;;7.77;2.30;;;10.10;1.00;;;;;;5118221;28;20249;-41
2023/12/10 03:00:41;;;;;;;8.73;2.80;;;9.80;1.00;;;;;;5118043;28;20198;-40
2023/12/10 03:03:07;;;;;;;5.87;2.40;;;9.50;11.60;;;;;;5117061;28;20421;-41
2023/12/10 03:05:33;;;;;;;11.50;2.30;;;9.30;99.90;;;;;;5118964;28;20433;-42
2023/12/10 03:07:58;;;;;;;11.30;2.53;;;9.20;99.90;;;;;;5118176;28;20272;-43
2023/12/10 03:10:24;;;;;;;9.47;2.50;;;9.00;1.00;;;;;;5100273;28;20168;-40
2023/12/10 03:12:50;;;;;;;7.30;2.23;;;8.90;1.00;;;;;;5117438;28;20164;-41
2023/12/10 03:15:15;;;;;;;9.80;3.40;;;8.70;68.10;;;;;;5100049;28;20219;-41
2023/12/10 03:17:41;;;;;;;5.40;2.63;;;8.70;99.90;;;;;;5118510;28;20209;-40
2023/12/10 03:20:09;;;;;;;12.50;3.13;;;8.60;99.90;;;;;;5118099;28;20266;-41
2023/12/10 03:22:35;;;;;;;13.80;3.17;;;8.50;99.90;;;;;;5118341;28;20485;-41
2023/12/10 03:25:00;;;;;;;10.43;4.00;;;8.40;99.90;;;;;;5118832;28;20509;-40
2023/12/10 03:27:26;;;;;;;11.57;3.00;;;8.40;99.90;;;;;;5118057;28;20242;-41
2023/12/10 03:29:52;;;;;;;8.13;3.07;;;8.40;99.90;;;;;;5100673;28;20519;-41
2023/12/10 03:32:17;;;;;;;18.60;3.90;;;8.30;99.90;;;;;;5118611;28;20179;-40
2023/12/10 03:34:43;;;;;;;11.90;3.00;;;8.30;99.90;;;;;;5118481;28;20323;-42
2023/12/10 03:37:08;;;;;;;13.10;2.80;;;8.30;99.90;;;;;;5118241;28;20227;-43
2023/12/10 03:39:34;;;;;;;8.60;2.50;;;8.20;99.90;;;;;;5117816;28;20262;-40
2023/12/10 03:42:00;;;;;;;12.13;2.87;;;8.20;99.90;;;;;;5117501;28;20183;-40
2023/12/10 03:44:25;;;;;;;12.27;2.80;;;8.10;99.90;;;;;;5117120;28;20290;-43
2023/12/10 03:46:51;;;;;;;12.73;3.40;;;8.10;99.90;;;;;;5118078;28;20254;-42
2023/12/10 03:49:17;;;;;;;12.83;3.37;;;8.10;99.90;;;;;;5118901;28;20213;-41
2023/12/10 03:51:42;;;;;;;12.10;3.00;;;8.10;82.90;;;;;;5118098;28;20507;-42
2023/12/10 03:54:08;;;;;;;13.70;3.73;;;8.10;4.20;;;;;;5118037;28;20581;-41
2023/12/10 03:56:33;;;;;;;12.13;3.57;;;8.10;1.00;;;;;;5099676;28;20571;-39
2023/12/10 03:58:59;;;;;;;8.10;2.30;;;8.10;1.00;;;;;;5116039;28;20335;-40
2023/12/10 04:01:25;;;;;;;13.00;2.90;;;8.00;1.00;;;;;;5116323;28;20176;-41
2023/12/10 04:03:50;;;;;;;10.50;2.87;;;8.00;1.00;;;;;;5118810;28;20184;-40
2023/12/10 04:06:16;;;;;;;12.47;3.20;;;8.00;1.00;;;;;;5118250;28;20171;-42
2023/12/10 04:08:42;;;;;;;12.40;3.70;;;8.00;99.90;;;;;;5118676;28;20496;-40
2023/12/10 04:11:08;;;;;;;13.20;3.33;;;8.00;99.90;;;;;;5117520;28;20489;-41
2023/12/10 04:13:33;;;;;;;11.20;2.67;;;8.00;99.90;;;;;;5117283;28;20439;-44
2023/12/10 04:16:00;;;;;;;9.87;2.80;;;8.00;99.90;;;;;;5117059;28;20176;-41
2023/12/10 04:18:27;;;;;;;9.20;2.70;;;8.00;99.90;;;;;;5118624;28;20427;-42
2023/12/10 04:20:53;;;;;;;8.47;3.07;;;8.00;99.90;;;;;;5118285;28;20663;-41
2023/12/10 04:23:18;;;;;;;10.67;3.20;;;8.00;55.30;;;;;;5117291;28;20436;-42
2023/12/10 04:25:44;;;;;;;10.20;2.43;;;8.00;1.00;;;;;;5117523;28;20417;-42
2023/12/10 04:28:10;;;;;;;9.67;2.53;;;8.00;1.00;;;;;;5116509;28;20274;-40
2023/12/10 04:30:36;;;;;;;8.60;2.97;;;8.00;1.00;;;;;;5117610;28;20167;-40
2023/12/10 04:33:04;;;;;;;10.30;2.97;;;8.00;1.00;;;;;;5117519;28;20436;-41
2023/12/10 04:35:29;;;;;;;8.63;2.70;;;8.00;99.90;;;;;;5117760;28;20227;-41
2023/12/10 04:37:55;;;;;;;11.67;3.73;;;8.00;10.50;;;;;;5117143;28;20452;-40
2023/12/10 04:40:21;;;;;;;9.97;2.80;;;8.00;1.00;;;;;;5117462;28;20187;-40
2023/12/10 04:42:47;;;;;;;9.37;2.43;;;8.00;1.00;;;;;;5116175;28;20186;-40
2023/12/10 04:45:13;;;;;;;11.60;3.43;;;8.00;1.00;;;;;;5117389;28;20524;-46
2023/12/10 04:47:38;;;;;;;15.10;2.67;;;8.10;1.00;;;;;;5117463;28;20215;-41
2023/12/10 04:50:05;;;;;;;13.80;3.33;;;8.00;99.90;;;;;;5118026;28;20512;-42
2023/12/10 04:52:30;;;;;;;13.20;3.33;;;8.00;91.90;;;;;;5117357;28;20206;-39
2023/12/10 04:54:58;;;;;;;10.13;2.63;;;8.00;27.30;;;;;;5117197;28;20438;-39
2023/12/10 04:57:24;;;;;;;5.00;2.40;;;8.00;1.00;;;;;;5116855;28;20184;-39
2023/12/10 04:59:50;;;;;;;7.80;2.63;;;8.00;1.00;;;;;;5116634;28;20447;-40
2023/12/10 05:02:16;;;;;;;7.67;2.83;;;8.00;1.00;;;;;;5116342;28;20523;-43
2023/12/10 05:04:41;;;;;;;8.17;2.37;;;7.90;25.30;;;;;;5116400;28;20235;-42
2023/12/10 05:07:07;;;;;;;11.80;2.83;;;8.00;99.90;;;;;;5116874;28;20195;-42
2023/12/10 05:09:33;;;;;;;9.30;2.73;;;7.90;99.90;;;;;;5117038;28;20176;-40
2023/12/10 05:11:59;;;;;;;10.50;3.43;;;7.90;99.90;;;;;;5115177;28;20548;-48
2023/12/10 05:14:25;;;;;;;8.40;2.63;;;7.90;99.90;;;;;;5116567;28;20208;-39
2023/12/10 05:16:50;;;;;;;7.67;2.60;;;7.90;52.80;;;;;;5116799;28;20175;-40
2023/12/10 05:19:16;;;;;;;8.67;2.37;;;7.90;6.60;;;;;;5118412;28;20214;-40
2023/12/10 05:21:42;;;;;;;7.10;2.90;;;7.90;1.00;;;;;;5120497;28;20529;-42
2023/12/10 05:24:08;;;;;;;18.37;2.67;;;7.90;1.00;;;;;;5120744;28;20176;-45
2023/12/10 05:26:34;;;;;;;8.37;2.70;;;7.90;1.00;;;;;;5099738;28;20473;-40
2023/12/10 05:28:59;;;;;;;11.43;3.30;;;7.90;99.90;;;;;;5116316;28;20532;-41
2023/12/10 05:31:25;;;;;;;10.80;2.80;;;7.90;99.90;;;;;;5117913;28;20176;-42
2023/12/10 05:33:50;;;;;;;8.73;3.03;;;7.90;99.90;;;;;;5117205;28;20243;-43
2023/12/10 05:36:16;;;;;;;6.47;3.00;;;7.90;99.90;;;;;;5099541;28;20183;-43
2023/12/10 05:38:42;;;;;;;11.17;2.63;;;8.00;99.90;;;;;;5118094;28;20176;-42
2023/12/10 05:41:07;;;;;;;7.83;2.33;;;7.90;99.90;;;;;;5118623;28;20195;-40
2023/12/10 05:43:33;;;;;;;16.17;3.57;;;7.90;99.90;;;;;;5120685;28;20190;-42
2023/12/10 05:45:59;;;;;;;10.77;2.60;;;7.90;99.90;;;;;;5119858;28;20521;-41
2023/12/10 05:48:27;;;;;;;8.70;2.43;;;7.90;99.90;;;;;;5119087;28;20279;-40
2023/12/10 05:50:53;;;;;;;7.57;2.10;;;7.90;99.90;;;;;;5119080;28;20418;-39
2023/12/10 05:53:19;;;;;;;15.77;3.10;;;7.90;99.90;;;;;;5119404;28;20528;-43
2023/12/10 05:55:45;;;;;;;8.90;2.23;;;7.90;99.90;;;;;;5120026;28;20426;-42
2023/12/10 05:58:10;;;;;;;9.97;3.43;;;7.90;99.90;;;;;;5119816;28;20406;-40
2023/12/10 06:00:36;;;;;;;9.10;2.10;;;7.90;99.90;;;;;;5119769;28;20176;-41
2023/12/10 06:03:02;;;;;;;9.23;2.90;;;7.90;99.90;;;;;;5118357;28;20499;-42
2023/12/10 06:05:28;;;;;;;7.40;2.20;;;7.90;1.00;;;;;;5118450;28;20244;-41
2023/12/10 06:07:54;;;;;;;10.80;2.43;;;7.90;1.00;;;;;;5117640;28;20538;-42
2023/12/10 06:10:20;;;;;;;11.70;2.67;;;7.90;99.90;;;;;;5118836;28;20441;-40
2023/12/10 06:12:46;;;;;;;6.13;2.23;;;7.90;99.90;;;;;;5118185;28;20410;-40
2023/12/10 06:15:12;;;;;;;11.30;4.93;;;7.90;14.20;;;;;;5119427;28;20433;-41
2023/12/10 06:17:37;;;;;;;5.03;1.70;;;7.90;1.00;;;;;;5120438;28;20179;-40
2023/12/10 06:20:04;;;;;;;9.37;2.53;;;7.90;99.90;;;;;;5119004;28;20436;-40
2023/12/10 06:22:30;;;;;;;8.60;2.60;;;7.90;1.00;;;;;;5118103;28;20176;-43
2023/12/10 06:24:56;;;;;;;7.10;2.30;;;7.90;1.00;;;;;;5119778;28;20410;-42
2023/12/10 06:27:21;;;;;;;9.97;2.47;;;7.90;1.00;;;;;;5119319;28;20211;-41
2023/12/10 06:29:47;;;;;;;10.30;2.50;;;7.90;1.00;;;;;;5119329;28;20433;-44
2023/12/10 06:32:13;;;;;;;9.80;2.03;;;7.90;1.00;;;;;;5119707;28;20201;-40
2023/12/10 06:34:39;;;;;;;10.27;3.30;;;7.90;1.00;;;;;;5119596;28;20621;-40
2023/12/10 06:37:04;;;;;;;8.03;2.00;;;7.90;1.00;;;;;;5119363;28;20168;-41
2023/12/10 06:39:30;;;;;;;7.40;2.67;;;7.90;1.00;;;;;;5101285;28;20478;-40
2023/12/10 06:41:55;;;;;;;5.50;2.40;;;7.90;1.00;;;;;;5118812;28;20187;-41
2023/12/10 06:44:21;;;;;;;10.37;2.03;;;7.90;1.00;;;;;;5118645;28;20255;-41
2023/12/10 06:46:48;;;;;;;14.10;3.20;;;7.90;1.00;;;;;;5100815;28;20274;-39
2023/12/10 06:49:14;;;;;;;9.97;2.63;;;7.90;1.00;;;;;;5118623;28;20199;-41
2023/12/10 06:51:40;;;;;;;8.33;2.33;;;7.90;1.00;;;;;;5118818;28;20409;-40
2023/12/10 06:54:05;;;;;;;4.70;2.27;;;7.90;1.00;;;;;;5118854;28;20495;-40
2023/12/10 06:56:33;;;;;;;8.33;2.40;;;7.80;1.00;;;;;;5119067;28;20585;-40
2023/12/10 06:58:58;;;;;;;6.93;2.07;;;7.90;1.00;;;;;;5119322;28;20187;-49
2023/12/10 07:01:24;;;;;;;7.10;2.53;;;7.90;1.00;;;;;;5119019;28;20444;-40
2023/12/10 07:03:50;;;;;;;9.50;1.97;;;7.80;1.00;;;;;;5118547;28;20164;-40
2023/12/10 07:06:15;;;;;;;8.07;2.70;;;7.90;70.80;;;;;;5117611;28;20175;-41
2023/12/10 07:08:41;;;;;;;3.97;1.70;;;7.90;99.90;;;;;;5115993;28;20215;-48
2023/12/10 07:11:10;;;;;;;8.30;1.90;;;7.90;99.90;;;;;;5099231;28;20190;-42
2023/12/10 07:13:36;;;;;;;9.83;2.30;;;7.90;99.90;;;;;;5116858;28;20566;-40
2023/12/10 07:16:02;;;;;;;6.13;2.30;;;7.90;99.90;;;;;;5115541;28;20441;-40
2023/12/10 07:18:27;;;;;;;10.00;2.63;;;7.90;99.90;;;;;;5116775;28;20522;-42
2023/12/10 07:20:53;;;;;;;9.80;2.33;;;8.00;99.90;;;;;;5117944;28;20194;-40
2023/12/10 07:23:19;;;;;;;5.40;2.77;;;8.00;99.90;;;;;;5117890;28;20494;-40
2023/12/10 07:25:45;;;;;;;9.17;2.33;;;8.00;99.90;;;;;;5117625;28;20188;-40
2023/12/10 07:28:11;;;;;;;7.13;2.20;;;8.00;99.90;;;;;;5117001;28;20463;-45
2023/12/10 07:30:37;;;;;;;7.87;2.40;;;8.00;1.00;;;;;;5118263;28;20242;-40
2023/12/10 07:33:02;;;;;;;9.23;2.93;;;8.10;1.00;;;;;;5117972;28;20466;-40
2023/12/10 07:35:28;;;;;;;6.27;2.80;;;8.10;1.00;;;;;;5116659;28;20513;-40
2023/12/10 07:37:55;;;;;;;9.03;2.50;;;8.10;1.00;;;;;;5116019;28;20187;-42
2023/12/10 07:40:21;;;;;;;15.37;3.17;;;8.10;1.00;;;;;;5115235;28;20275;-41
2023/12/10 07:42:46;;;;;;;9.90;2.77;;;8.10;1.00;;;;;;5113942;28;20512;-43
2023/12/10 07:45:12;;;;;;;8.97;2.63;;;8.10;99.90;;;;;;5115972;28;20442;-40
2023/12/10 07:47:38;;;;;;;7.40;2.57;;;8.20;99.90;;;;;;5097989;28;20231;-41
2023/12/10 07:50:04;;;;;;;6.83;2.63;;;8.20;1.00;;;;;;5116215;28;20194;-43
2023/12/10 07:52:29;;;;;;;13.60;3.00;;;8.20;1.00;;;;;;5117137;28;20195;-40
2023/12/10 07:54:55;;;;;;;9.90;2.80;;;8.20;1.00;;;;;;5117472;28;20400;-40
2023/12/10 07:57:20;;;;;;;10.53;3.17;;;8.30;1.00;;;;;;5100817;28;20180;-43
2023/12/10 07:59:46;;;;;;;10.30;2.70;;;8.30;1.00;;;;;;5099979;28;20443;-43
2023/12/10 08:02:12;;;;;;;8.30;3.00;;;8.30;99.90;;;;;;5099750;28;20558;-42
2023/12/10 08:04:38;;;;;;;9.67;2.73;;;8.50;99.90;;;;;;5117232;28;20180;-39
2023/12/10 08:07:04;;;;;;;9.10;2.50;;;8.50;99.90;;;;;;5118035;28;20449;-41
2023/12/10 08:09:29;;;;;;;7.40;3.30;;;8.60;99.90;;;;;;5118001;28;20550;-41
2023/12/10 08:11:55;;;;;;;6.97;2.90;;;8.70;1.00;;;;;;5099339;28;20536;-42
2023/12/10 08:14:25;;;;;;;11.67;3.60;;;8.90;1.00;;;;;;5117005;28;20421;-40
2023/12/10 08:16:51;;;;;;;7.93;2.70;;;9.00;99.90;;;;;;5118054;28;20175;-42
2023/12/10 08:19:17;;;;;;;6.47;2.60;;;9.10;45.70;;;;;;5099197;28;20496;-42
2023/12/10 08:21:43;;;;;;;9.00;2.90;;;9.30;1.00;;;;;;5117667;28;20823;-41
2023/12/10 08:24:09;;;;;;;5.37;2.87;;;9.50;1.00;;;;;;5099985;28;20270;-40
2023/12/10 08:26:35;;;;;;;9.53;3.00;;;9.70;1.00;;;;;;5116594;28;20457;-40
2023/12/10 08:29:01;;;;;;;10.53;3.73;;;10.00;99.90;;;;;;5117825;28;20188;-42
2023/12/10 08:31:26;;;;;;;8.20;2.83;;;10.40;23.50;;;;;;5117429;28;20494;-40
2023/12/10 08:33:52;;;;;;;11.30;2.87;;;10.90;1.00;;;;;;5115999;28;20220;-40
2023/12/10 08:36:18;;;;;;;9.87;2.97;;;11.50;99.90;;;;;;5115350;28;20186;-41
2023/12/10 08:38:43;;;;;;;9.27;2.80;;;12.30;99.90;;;;;;5099014;28;20190;-41
2023/12/10 08:41:09;;;;;;;10.30;3.67;;;13.10;86.90;;;;;;5115109;28;20184;-42
2023/12/10 08:43:35;;;;;;;8.27;2.57;;;13.60;45.20;;;;;;5114791;28;20331;-42
2023/12/10 08:46:00;;;;;;;8.57;2.53;;;14.60;1.00;;;;;;5113222;28;20243;-41
2023/12/10 08:48:26;;;;;;;6.20;2.60;;;15.80;1.00;;;;;;5112879;28;20603;-41
2023/12/10 08:50:52;;;;;;;5.93;2.50;;;16.90;1.00;;;;;;5113143;28;20172;-41
2023/12/10 08:53:17;;;;;;;5.07;2.53;;;17.40;1.00;;;;;;5115689;28;20175;-43
2023/12/10 08:55:43;;;;;;;6.80;2.77;;;17.80;1.00;;;;;;5117850;28;20461;-41
2023/12/10 08:58:09;;;;;;;8.00;2.73;;;18.60;1.00;;;;;;5117213;28;20171;-40
2023/12/10 09:00:34;;;;;;;6.50;2.47;;;19.30;1.00;;;;;;5119278;28;20186;-40
2023/12/10 09:03:00;;;;;;;7.37;2.33;;;19.90;1.00;;;;;;5119643;28;20250;-42
2023/12/10 09:05:26;;;;;;;5.70;2.10;;;20.60;1.00;;;;;;5118845;28;20497;-41
2023/12/10 09:07:51;;;;;;;5.90;1.70;;;21.00;1.00;;;;;;5100558;28;20211;-41
2023/12/10 09:10:17;;;;;;;9.00;2.97;;;21.30;1.00;;;;;;5116647;28;20215;-41
2023/12/10 09:12:42;;;;;;;6.43;2.27;;;21.60;1.00;;;;;;5118219;28;20168;-43
2023/12/10 09:15:09;;;;;;;6.63;2.40;;;21.80;1.00;;;;;;5116709;28;20180;-41
2023/12/10 09:17:35;;;;;;;8.10;3.13;;;22.20;1.00;;;;;;5117716;28;20171;-42
2023/12/10 09:20:01;;;;;;;6.60;2.20;;;22.70;1.00;;;;;;5116989;28;20427;-41
2023/12/10 09:22:26;;;;;;;6.30;2.83;;;23.10;1.00;;;;;;5116306;28;20420;-42
2023/12/10 09:24:52;;;;;;;9.90;2.70;;;23.50;1.00;;;;;;5116576;28;20511;-42
2023/12/10 09:27:18;;;;;;;8.93;2.80;;;23.80;1.00;;;;;;5117065;28;20276;-42
2023/12/10 09:29:45;;;;;;;6.10;2.70;;;23.60;1.00;;;;;;5116684;28;20267;-40
2023/12/10 09:32:12;;;;;;;6.40;2.63;;;23.90;1.00;;;;;;5116648;28;20429;-41
2023/12/10 09:34:39;;;;;;;6.00;2.50;;;24.50;1.00;;;;;;5094896;28;20805;-43
2023/12/10 09:37:05;;;;;;;6.33;2.07;;;24.90;1.00;;;;;;5094895;28;20415;-41
2023/12/10 09:39:31;;;;;;;8.30;2.70;;;24.40;1.00;;;;;;5096269;28;20510;-44
2023/12/10 09:42:26;;;;;;;9.40;3.20;;;23.20;1.00;;;;;;5098711;28;20177;-42
2023/12/10 09:44:52;;;;;;;6.50;1.80;;;21.80;1.00;;;;;;5098262;28;20698;-41
2023/12/10 09:47:28;;;;;;;5.23;2.17;;;20.40;1.00;;;;;;5098087;28;20466;-41
2023/12/10 09:49:54;;;;;;;4.90;2.40;;;19.20;1.00;;;;;;5110021;27;20250;-41
2023/12/10 09:52:20;;;;;;;7.97;2.93;;;18.50;1.00;;;;;;5139277;27;20495;-41
2023/12/10 09:54:47;;;;;;;6.70;2.80;;;17.80;1.00;;;;;;5138736;27;20512;-42
2023/12/10 09:57:13;;;;;;;5.23;2.10;;;16.50;1.00;;;;;;5135446;27;20203;-41
2023/12/10 09:59:39;;;;;;;4.20;1.80;;;16.40;1.00;;;;;;5139927;27;20436;-41
2023/12/10 10:02:06;;;;;;;5.30;2.10;;;15.80;1.00;;;;;;5139568;27;20509;-40
2023/12/10 10:04:32;;;;;;;7.60;2.17;;;15.40;1.00;;;;;;5139084;27;20445;-42
2023/12/10 10:06:58;;;;;;;8.90;2.50;;;15.10;1.00;;;;;;5139682;27;20464;-43
2023/12/10 10:09:24;;;;;;;4.67;1.93;;;14.80;1.00;;;;;;5138767;27;20175;-43
2023/12/10 10:11:50;;;;;;;8.07;2.50;;;14.70;99.90;;;;;;5120666;27;20183;-42
2023/12/10 10:14:17;;;;;;;6.73;2.50;;;14.50;1.00;;;;;;5134061;27;20191;-40
2023/12/10 10:16:50;;;;;;;6.10;2.43;;;14.30;1.00;;;;;;5137097;27;20718;-45
2023/12/10 10:19:16;;;;;;;7.73;2.27;;;14.10;1.00;;;;;;5138809;27;20423;-41
2023/12/10 10:21:42;;;;;;;4.33;1.97;;;13.90;1.00;;;;;;5138508;27;20397;-41
2023/12/10 10:24:08;;;;;;;6.40;1.67;;;13.60;1.00;;;;;;5138588;27;20428;-41
2023/12/10 10:26:35;;;;;;;5.10;1.80;;;13.30;1.00;;;;;;5137581;27;20891;-41
2023/12/10 10:29:03;;;;;;;4.77;1.60;;;13.10;1.00;;;;;;5136295;27;20433;-40
2023/12/10 10:31:29;;;;;;;3.80;1.63;;;12.90;1.00;;;;;;5139231;27;20432;-41
2023/12/10 10:33:56;;;;;;;5.37;1.73;;;12.80;1.00;;;;;;5137718;27;20698;-41
2023/12/10 10:36:22;;;;;;;3.87;1.70;;;12.70;1.00;;;;;;5136899;27;20180;-42
2023/12/10 10:38:50;;;;;;;6.80;1.90;;;12.70;1.00;;;;;;5135900;27;20428;-41
2023/12/10 10:41:16;;;;;;;5.13;2.20;;;12.50;1.00;;;;;;5136086;27;20495;-42
2023/12/10 10:43:41;;;;;;;5.60;3.07;;;12.50;1.00;;;;;;5137909;27;20428;-40
2023/12/10 10:46:07;;;;;;;4.57;2.43;;;12.50;1.00;;;;;;5137683;27;20810;-40
2023/12/10 10:48:35;;;;;;;8.60;3.17;;;12.40;1.00;;;;;;5136138;27;20260;-41
2023/12/10 10:51:00;;;;;;;7.40;2.70;;;12.40;1.00;;;;;;5138571;27;20327;-41
2023/12/10 10:53:27;;;;;;;5.97;2.23;;;12.30;1.00;;;;;;5136595;27;20468;-41
2023/12/10 10:55:52;;;;;;;5.23;2.07;;;12.30;1.00;;;;;;5134444;27;20207;-40
2023/12/10 10:58:26;;;;;;;5.13;2.00;;;12.30;1.00;;;;;;5136784;27;20824;-40
2023/12/10 11:00:52;;;;;;;6.00;2.30;;;12.20;1.00;;;;;;5135575;27;20167;-40
2023/12/10 11:03:17;;;;;;;11.93;2.53;;;12.30;1.00;;;;;;5117297;27;20450;-41
2023/12/10 11:05:44;;;;;;;5.50;3.30;;;12.20;46.00;;;;;;5135458;27;20561;-45
2023/12/10 11:08:11;;;;;;;5.37;2.77;;;12.20;99.90;;;;;;5135275;27;20215;-39
2023/12/10 11:10:43;;;;;;;6.60;2.50;;;12.10;28.60;;;;;;5135143;27;20454;-42
2023/12/10 11:13:08;;;;;;;6.30;2.17;;;12.00;22.90;;;;;;5132602;27;20415;-50
2023/12/10 11:15:34;;;;;;;7.03;3.20;;;12.00;38.00;;;;;;5135307;27;20525;-40
2023/12/10 11:18:02;;;;;;;6.00;2.60;;;11.90;74.50;;;;;;5136034;27;20616;-39
2023/12/10 11:20:39;;;;;;;9.27;2.30;;;12.10;99.90;;;;;;5137232;27;20221;-43
2023/12/10 11:23:16;;;;;;;6.33;2.70;;;12.10;99.90;;;;;;5135864;27;20542;-40
2023/12/10 11:25:42;;;;;;;10.57;3.63;;;12.10;99.90;;;;;;5137087;27;20436;-41
2023/12/10 11:28:14;;;;;;;7.00;3.23;;;12.30;99.90;;;;;;5136728;27;20465;-42
2023/12/10 11:30:41;;;;;;;9.10;2.77;;;12.40;99.90;;;;;;5135629;27;20400;-40
2023/12/10 11:33:08;;;;;;;8.50;2.37;;;12.50;99.90;;;;;;5135986;27;20815;-46
2023/12/10 11:35:34;;;;;;;10.47;3.07;;;12.50;99.90;;;;;;5136197;27;20433;-43
2023/12/10 11:38:00;;;;;;;5.67;2.43;;;12.50;99.90;;;;;;5137826;27;20741;-41
2023/12/10 11:40:26;;;;;;;7.47;2.30;;;12.50;86.00;;;;;;5137399;27;20501;-42
2023/12/10 11:42:52;;;;;;;12.10;2.70;;;12.50;80.10;;;;;;5136893;27;20408;-40
2023/12/10 11:45:18;;;;;;;13.13;3.17;;;12.40;67.60;;;;;;5135945;27;20174;-41
2023/12/10 11:47:44;;;;;;;11.97;2.57;;;12.30;99.90;;;;;;5136864;27;20313;-39
2023/12/10 11:50:11;;;;;;;9.87;2.83;;;12.20;99.90;;;;;;5133985;27;20475;-41
2023/12/10 11:52:37;;;;;;;9.70;3.03;;;12.10;99.90;;;;;;5134494;27;20428;-40
2023/12/10 11:55:03;;;;;;;6.67;2.00;;;12.00;99.90;;;;;;5136735;27;20814;-39
2023/12/10 11:57:29;;;;;;;9.60;2.87;;;12.20;99.90;;;;;;5136380;27;20266;-38
2023/12/10 11:59:56;;;;;;;7.23;2.47;;;12.90;1.00;;;;;;5137887;27;20527;-39
2023/12/10 12:02:22;;;;;;;7.63;3.00;;;13.60;51.20;;;;;;5136700;27;20284;-40
2023/12/10 12:04:51;;;;;;;10.53;2.90;;;14.20;99.90;;;;;;5134570;27;20889;-47
2023/12/10 12:07:27;;;;;;;10.93;3.30;;;14.50;99.90;;;;;;5134152;27;20470;-42
2023/12/10 12:09:53;;;;;;;9.13;2.50;;;14.60;61.30;;;;;;5134179;27;20498;-41
2023/12/10 12:12:22;;;;;;;8.53;2.90;;;14.60;1.00;;;;;;5135815;27;20769;-40
2023/12/10 12:14:51;;;;;;;5.83;2.57;;;14.50;1.00;;;;;;5134257;27;20511;-41
2023/12/10 12:17:21;;;;;;;7.43;3.50;;;14.60;99.90;;;;;;5132860;27;20405;-45
2023/12/10 12:19:47;;;;;;;9.53;2.33;;;14.70;99.90;;;;;;5132852;28;20427;-42
2023/12/10 12:22:14;;;;;;;8.33;2.23;;;14.60;99.90;;;;;;5136207;28;20408;-43
2023/12/10 12:24:40;;;;;;;7.10;2.40;;;14.70;99.90;;;;;;5134889;28;20408;-42
2023/12/10 12:27:07;;;;;;;12.03;2.97;;;14.60;99.90;;;;;;5134103;27;20471;-41
2023/12/10 12:29:33;;;;;;;6.63;2.57;;;14.60;99.90;;;;;;5138556;27;20819;-43
2023/12/10 12:32:00;;;;;;;7.77;2.40;;;14.40;99.90;;;;;;5138557;27;20412;-43
2023/12/10 12:34:26;;;;;;;12.03;2.80;;;14.30;99.90;;;;;;5139916;27;20448;-41
2023/12/10 12:36:52;;;;;;;12.50;3.80;;;14.20;99.90;;;;;;5139814;27;20893;-44
2023/12/10 12:39:17;;;;;;;6.60;2.53;;;13.80;1.00;;;;;;5139459;27;20492;-41
2023/12/10 12:41:43;;;;;;;9.83;2.70;;;13.50;1.00;;;;;;5139205;27;20190;-41
2023/12/10 12:44:10;;;;;;;8.63;2.53;;;13.20;1.00;;;;;;5139660;27;20433;-41
2023/12/10 12:46:35;;;;;;;13.13;3.47;;;12.90;1.00;;;;;;5139832;27;20457;-41
2023/12/10 12:49:01;;;;;;;8.97;3.80;;;12.50;1.00;;;;;;5137109;27;20452;-42